Time;durP1;ratioP1;P1;durP2;ratioP2;P2;SDS_P1;SDS_P2;PMS_P1;PMS_P2;Temp;Humidity;BMP_temperature;BMP_pressure;BME280_temperature;BME280_humidity;BME280_pressure;Samples;Min_cycle;Max_cycle;Signal;HPM_P1;HPM_P2
2022/04/09 00:00:58;;;;;;;9.32;7.43;;;7.60;99.90;7.50;96699.00;;;;4633037;30;88442;-61
2022/04/09 00:03:25;;;;;;;8.65;7.32;;;7.60;99.90;7.50;96713.00;;;;4632964;30;86521;-61
2022/04/09 00:05:51;;;;;;;11.52;7.30;;;7.50;99.90;7.40;96711.00;;;;4634102;30;87337;-62
2022/04/09 00:08:17;;;;;;;10.50;7.68;;;7.50;99.90;7.40;96718.00;;;;4634413;30;88744;-61
2022/04/09 00:10:43;;;;;;;8.48;7.00;;;7.40;99.90;7.30;96717.00;;;;4633321;30;88984;-61
2022/04/09 00:13:10;;;;;;;8.35;5.50;;;7.30;99.90;7.20;96720.00;;;;4633533;30;87750;-61
2022/04/09 00:15:37;;;;;;;5.57;4.40;;;7.30;99.90;7.20;96730.00;;;;4633503;30;87185;-61
2022/04/09 00:18:03;;;;;;;8.40;5.50;;;7.20;99.90;7.10;96728.00;;;;4633785;30;88679;-62
2022/04/09 00:20:30;;;;;;;5.03;3.50;;;7.20;99.90;7.00;96740.00;;;;4633952;30;88616;-61
2022/04/09 00:22:56;;;;;;;5.38;3.22;;;7.00;99.90;6.90;96734.00;;;;4633051;30;87554;-60
2022/04/09 00:25:24;;;;;;;6.18;3.25;;;6.90;99.90;6.70;96748.00;;;;4636334;30;87022;-62
2022/04/09 00:27:51;;;;;;;3.85;3.17;;;6.80;99.90;6.70;96747.00;;;;4634390;30;86343;-62
2022/04/09 00:30:19;;;;;;;3.88;3.35;;;6.70;99.90;6.50;96744.00;;;;4633946;30;87144;-61
2022/04/09 00:32:45;;;;;;;6.53;3.70;;;6.60;99.90;6.50;96753.00;;;;4635992;30;87173;-61
2022/04/09 00:35:12;;;;;;;6.35;3.28;;;6.50;99.90;6.40;96743.00;;;;4632830;30;88076;-61
2022/04/09 00:37:45;;;;;;;5.25;3.42;;;6.40;99.90;6.30;96755.00;;;;4633818;30;88654;-62
2022/04/09 00:40:15;;;;;;;3.72;2.63;;;6.30;99.90;6.20;96748.00;;;;4633118;30;87433;-62
2022/04/09 00:42:42;;;;;;;4.72;3.13;;;6.30;99.90;6.10;96752.00;;;;4619222;30;87633;-62
2022/04/09 00:45:10;;;;;;;5.70;3.10;;;6.20;99.90;6.00;96746.00;;;;4633800;30;87450;-62
2022/04/09 00:47:37;;;;;;;6.28;3.13;;;6.10;99.90;6.00;96754.00;;;;4633532;30;87644;-61
2022/04/09 00:50:06;;;;;;;5.10;3.30;;;6.10;99.90;6.00;96765.00;;;;4632775;30;87604;-62
2022/04/09 00:52:43;;;;;;;4.38;2.85;;;6.10;99.90;5.90;96760.00;;;;4633519;30;87056;-61
2022/04/09 00:55:10;;;;;;;4.22;2.83;;;6.00;99.90;5.90;96761.00;;;;4633074;30;87549;-61
2022/04/09 00:57:42;;;;;;;5.43;3.05;;;6.00;99.90;5.90;96760.00;;;;4631968;30;88677;-60
2022/04/09 01:00:10;;;;;;;6.13;3.33;;;6.00;99.90;5.80;96772.00;;;;4632597;30;87956;-59
2022/04/09 01:02:46;;;;;;;6.15;3.92;;;5.90;99.90;5.80;96782.00;;;;4633267;30;87421;-62
2022/04/09 01:05:13;;;;;;;6.53;4.00;;;5.90;99.90;5.70;96777.00;;;;4631742;30;87633;-60
2022/04/09 01:07:40;;;;;;;5.32;3.60;;;5.80;99.90;5.70;96784.00;;;;4633318;30;87541;-60
2022/04/09 01:10:11;;;;;;;5.50;4.07;;;5.80;99.90;5.60;96784.00;;;;4632663;30;87284;-60
2022/04/09 01:12:38;;;;;;;7.20;3.77;;;5.80;99.90;5.60;96779.00;;;;4632861;30;87188;-60
2022/04/09 01:15:06;;;;;;;6.22;3.97;;;5.70;99.90;5.60;96793.00;;;;4631739;30;87075;-59
2022/04/09 01:17:35;;;;;;;6.20;4.32;;;5.70;99.90;5.60;96795.00;;;;4632124;30;88082;-60
2022/04/09 01:20:19;;;;;;;6.05;4.53;;;5.70;99.90;5.60;96805.00;;;;4632779;30;87095;-60
2022/04/09 01:22:49;;;;;;;5.97;4.05;;;5.70;99.90;5.60;96807.00;;;;4646608;30;87129;-61
2022/04/09 01:25:16;;;;;;;6.72;4.75;;;5.80;99.90;5.60;96803.00;;;;4634881;30;89028;-60
2022/04/09 01:27:46;;;;;;;7.60;4.63;;;5.80;99.90;5.60;96806.00;;;;4631770;30;89386;-60
2022/04/09 01:30:13;;;;;;;7.38;4.40;;;5.70;99.90;5.60;96821.00;;;;4632256;30;87481;-60
2022/04/09 01:32:39;;;;;;;6.00;4.25;;;5.70;99.90;5.60;96812.00;;;;4634858;30;87075;-59
2022/04/09 01:35:06;;;;;;;5.35;4.13;;;5.70;99.90;5.60;96822.00;;;;4632590;30;87130;-59
2022/04/09 01:37:33;;;;;;;6.68;4.28;;;5.70;99.90;5.60;96828.00;;;;4642660;30;87617;-56
2022/04/09 01:40:00;;;;;;;5.95;4.22;;;5.70;99.90;5.50;96819.00;;;;4646886;30;87447;-54
2022/04/09 01:42:27;;;;;;;6.05;4.13;;;5.70;99.90;5.50;96834.00;;;;4632422;30;86893;-56
2022/04/09 01:44:57;;;;;;;6.07;4.35;;;5.70;99.90;5.50;96844.00;;;;4632285;30;87088;-56
2022/04/09 01:47:24;;;;;;;5.70;4.53;;;5.70;99.90;5.50;96847.00;;;;4618604;30;87595;-57
2022/04/09 01:49:51;;;;;;;5.88;4.65;;;5.70;99.90;5.50;96852.00;;;;4631820;30;88453;-57
2022/04/09 01:52:17;;;;;;;7.28;4.93;;;5.60;99.90;5.50;96846.00;;;;4618460;30;87149;-56
2022/04/09 01:54:43;;;;;;;5.22;4.40;;;5.60;99.90;5.40;96871.00;;;;4632311;30;87101;-53
2022/04/09 01:57:09;;;;;;;5.35;4.78;;;5.60;99.90;5.40;96865.00;;;;4631396;30;87250;-53
2022/04/09 01:59:36;;;;;;;10.43;6.78;;;5.50;99.90;5.40;96873.00;;;;4632754;30;88466;-59
2022/04/09 02:02:03;;;;;;;8.27;5.90;;;5.50;99.90;5.40;96889.00;;;;4631428;30;87279;-59
2022/04/09 02:04:29;;;;;;;8.40;7.60;;;5.50;99.90;5.30;96883.00;;;;4630892;30;87685;-59
2022/04/09 02:06:55;;;;;;;7.25;6.55;;;5.40;99.90;5.30;96890.00;;;;4632097;30;87078;-59
2022/04/09 02:09:23;;;;;;;9.52;8.57;;;5.40;99.90;5.30;96902.00;;;;4631990;30;87562;-59
2022/04/09 02:11:49;;;;;;;7.80;4.60;;;5.40;99.90;5.30;96899.00;;;;4632501;30;87045;-59
2022/04/09 02:14:15;;;;;;;14.68;13.38;;;5.40;99.90;5.30;96901.00;;;;4621891;30;88231;-59
2022/04/09 02:16:41;;;;;;;14.02;12.95;;;5.50;99.90;5.30;96913.00;;;;4645208;30;87567;-58
2022/04/09 02:19:10;;;;;;;14.18;12.70;;;5.40;99.90;5.20;96918.00;;;;4631178;30;87376;-58
2022/04/09 02:21:37;;;;;;;6.07;4.28;;;5.40;99.90;5.20;96905.00;;;;4616538;30;87614;-58
2022/04/09 02:24:04;;;;;;;12.73;11.55;;;5.40;99.90;5.20;96916.00;;;;4635092;30;87203;-58
2022/04/09 02:26:31;;;;;;;11.65;10.55;;;5.30;99.90;5.10;96913.00;;;;4645454;30;87459;-59
2022/04/09 02:28:57;;;;;;;9.13;8.32;;;5.30;99.90;5.10;96917.00;;;;4631257;30;87073;-59
2022/04/09 02:31:24;;;;;;;10.02;9.13;;;5.30;99.90;5.10;96912.00;;;;4631539;30;86723;-60
2022/04/09 02:33:51;;;;;;;10.45;9.35;;;5.30;99.90;5.10;96912.00;;;;4631440;30;87596;-60
2022/04/09 02:36:17;;;;;;;9.57;8.68;;;5.30;99.90;5.00;96920.00;;;;4621283;30;87813;-59
2022/04/09 02:38:45;;;;;;;9.70;7.80;;;5.20;99.90;5.00;96928.00;;;;4631139;30;87997;-60
2022/04/09 02:41:12;;;;;;;10.50;9.55;;;5.20;99.90;5.00;96931.00;;;;4645485;30;87290;-60
2022/04/09 02:43:43;;;;;;;11.30;10.30;;;5.20;99.90;5.00;96924.00;;;;4631582;30;87169;-60
2022/04/09 02:46:09;;;;;;;5.33;4.80;;;5.10;99.90;5.00;96921.00;;;;4631099;30;89707;-60
2022/04/09 02:48:38;;;;;;;6.90;5.15;;;5.10;99.90;5.00;96926.00;;;;4634234;30;87289;-60
2022/04/09 02:51:04;;;;;;;5.38;4.82;;;5.10;99.90;5.00;96937.00;;;;4634001;30;87111;-61
2022/04/09 02:53:31;;;;;;;6.00;5.22;;;5.10;99.90;5.00;96927.00;;;;4634662;30;87042;-61
2022/04/09 02:55:59;;;;;;;6.65;4.80;;;5.10;99.90;5.00;96942.00;;;;4634138;30;86698;-60
2022/04/09 02:58:26;;;;;;;5.57;4.43;;;5.10;99.90;5.00;96950.00;;;;4633488;30;87062;-59
2022/04/09 03:00:52;;;;;;;6.50;4.80;;;5.10;99.90;5.00;96947.00;;;;4633307;30;87005;-61
2022/04/09 03:03:24;;;;;;;6.80;5.35;;;5.10;99.90;5.00;96957.00;;;;4633303;30;88991;-62
2022/04/09 03:05:52;;;;;;;5.38;4.63;;;5.20;99.90;5.00;96957.00;;;;4634198;30;88796;-57
2022/04/09 03:08:18;;;;;;;6.78;5.00;;;5.10;99.90;5.00;96957.00;;;;4634473;30;87124;-57
2022/04/09 03:10:44;;;;;;;6.03;4.55;;;5.10;99.90;5.00;96944.00;;;;4634821;30;87161;-59
2022/04/09 03:13:10;;;;;;;4.95;4.45;;;5.10;99.90;4.90;96940.00;;;;4620864;30;87229;-58
2022/04/09 03:15:37;;;;;;;6.32;4.80;;;5.10;99.90;4.90;96962.00;;;;4633192;30;88665;-60
2022/04/09 03:18:03;;;;;;;4.88;4.47;;;5.10;99.90;4.90;96963.00;;;;4632997;30;87131;-60
2022/04/09 03:20:33;;;;;;;10.25;9.32;;;5.10;99.90;4.90;96958.00;;;;4628303;30;86799;-60
2022/04/09 03:22:59;;;;;;;11.00;10.20;;;5.00;99.90;4.90;96959.00;;;;4633462;30;87172;-60
2022/04/09 03:25:46;;;;;;;10.82;10.02;;;5.00;99.90;4.90;96964.00;;;;4633100;30;88086;-60
2022/04/09 03:28:15;;;;;;;8.63;7.72;;;5.00;99.90;4.90;96976.00;;;;4632382;30;88434;-60
2022/04/09 03:30:44;;;;;;;7.93;7.22;;;5.00;99.90;4.90;96974.00;;;;4633227;30;87523;-59
2022/04/09 03:33:11;;;;;;;7.82;7.07;;;5.00;99.90;4.90;96983.00;;;;4619408;30;87192;-60
2022/04/09 03:35:37;;;;;;;7.80;7.00;;;5.00;99.90;4.90;96973.00;;;;4634357;30;88566;-60
2022/04/09 03:38:10;;;;;;;8.07;7.35;;;5.10;99.90;5.00;96981.00;;;;4647557;30;87738;-59
2022/04/09 03:40:46;;;;;;;5.65;5.13;;;5.10;99.90;5.00;96984.00;;;;4633752;30;87186;-59
2022/04/09 03:43:15;;;;;;;6.10;4.65;;;5.10;99.90;5.00;96988.00;;;;4647577;30;87124;-57
2022/04/09 03:45:41;;;;;;;7.90;5.15;;;5.10;99.90;5.00;96990.00;;;;4661887;30;88166;-57
2022/04/09 03:48:08;;;;;;;7.38;5.50;;;5.10;99.90;5.00;96996.00;;;;4633164;30;87484;-55
2022/04/09 03:50:38;;;;;;;5.70;5.10;;;5.10;99.90;5.10;97010.00;;;;4619784;30;87079;-59
2022/04/09 03:53:06;;;;;;;7.20;5.47;;;5.20;99.90;5.10;97025.00;;;;4632851;30;87879;-58
2022/04/09 03:55:33;;;;;;;8.50;5.65;;;5.20;99.90;5.10;97031.00;;;;4634107;30;87584;-58
2022/04/09 03:58:02;;;;;;;7.75;5.50;;;5.20;99.90;5.10;97037.00;;;;4631433;30;87461;-57
2022/04/09 04:00:29;;;;;;;7.80;5.53;;;5.20;99.90;5.10;97035.00;;;;4618612;30;87183;-58
2022/04/09 04:02:57;;;;;;;7.03;6.35;;;5.20;99.90;5.20;97047.00;;;;4632439;30;87296;-58
2022/04/09 04:05:25;;;;;;;9.30;7.60;;;5.20;99.90;5.10;97036.00;;;;4632361;30;88716;-58
2022/04/09 04:07:52;;;;;;;7.25;5.88;;;5.30;99.90;5.20;97048.00;;;;4632979;30;87465;-57
2022/04/09 04:10:21;;;;;;;7.88;6.55;;;5.30;99.90;5.20;97048.00;;;;4633373;30;86386;-57
2022/04/09 04:12:54;;;;;;;7.55;5.78;;;5.30;99.90;5.20;97057.00;;;;4635034;30;87136;-58
2022/04/09 04:15:27;;;;;;;8.82;7.90;;;5.30;99.90;5.20;97067.00;;;;4618595;30;88244;-57
2022/04/09 04:17:55;;;;;;;9.18;5.55;;;5.30;99.90;5.20;97073.00;;;;4630668;30;88294;-58
2022/04/09 04:20:25;;;;;;;7.03;5.28;;;5.30;99.90;5.20;97075.00;;;;4619973;30;87540;-58
2022/04/09 04:22:55;;;;;;;8.45;5.65;;;5.30;99.90;5.30;97081.00;;;;4633983;30;87105;-58
2022/04/09 04:25:22;;;;;;;7.95;5.78;;;5.40;99.90;5.30;97079.00;;;;4632456;30;87749;-58
2022/04/09 04:27:49;;;;;;;8.60;5.68;;;5.40;99.90;5.30;97089.00;;;;4632900;30;89137;-58
2022/04/09 04:30:18;;;;;;;7.28;5.82;;;5.40;99.90;5.30;97086.00;;;;4633138;30;87106;-61
2022/04/09 04:32:45;;;;;;;9.50;5.90;;;5.40;99.90;5.30;97099.00;;;;4618109;30;87146;-59
2022/04/09 04:35:14;;;;;;;8.73;6.07;;;5.40;99.90;5.30;97100.00;;;;4633286;30;88078;-58
2022/04/09 04:37:47;;;;;;;7.82;5.03;;;5.40;99.90;5.30;97106.00;;;;4618706;30;88002;-59
2022/04/09 04:40:16;;;;;;;6.05;5.22;;;5.40;99.90;5.30;97101.00;;;;4632935;30;87169;-59
2022/04/09 04:42:49;;;;;;;9.93;5.32;;;5.40;99.90;5.30;97094.00;;;;4631980;30;88259;-61
2022/04/09 04:45:17;;;;;;;10.15;5.57;;;5.50;99.90;5.40;97109.00;;;;4632108;30;89004;-59
2022/04/09 04:47:49;;;;;;;11.67;5.47;;;5.50;99.90;5.40;97106.00;;;;4632653;30;87428;-59
2022/04/09 04:50:20;;;;;;;8.05;5.35;;;5.50;99.90;5.50;97108.00;;;;4632639;30;87484;-59
2022/04/09 04:52:47;;;;;;;9.32;5.60;;;5.60;99.90;5.50;97111.00;;;;4632373;30;87706;-59
2022/04/09 04:55:15;;;;;;;6.60;5.45;;;5.60;99.90;5.50;97109.00;;;;4632116;30;88639;-57
2022/04/09 04:57:50;;;;;;;7.10;5.82;;;5.70;99.90;5.50;97124.00;;;;4631800;30;87379;-59
2022/04/09 05:00:23;;;;;;;9.18;5.60;;;5.70;99.90;5.60;97117.00;;;;4632679;30;86354;-59
2022/04/09 05:02:55;;;;;;;7.63;5.78;;;5.70;99.90;5.60;97127.00;;;;4631431;30;87249;-59
2022/04/09 05:05:22;;;;;;;7.70;5.20;;;5.70;99.90;5.70;97134.00;;;;4646268;30;88446;-60
2022/04/09 05:07:51;;;;;;;10.65;5.63;;;5.80;99.90;5.80;97140.00;;;;4631720;30;88274;-59
2022/04/09 05:10:24;;;;;;;8.73;5.85;;;5.90;99.90;5.80;97155.00;;;;4631820;30;87070;-60
2022/04/09 05:12:52;;;;;;;5.53;4.85;;;5.90;99.90;5.90;97170.00;;;;4634313;30;87628;-59
2022/04/09 05:15:19;;;;;;;7.28;4.95;;;6.00;99.90;5.90;97164.00;;;;4631458;30;87434;-59
2022/04/09 05:17:48;;;;;;;5.57;5.03;;;6.00;99.90;6.00;97165.00;;;;4631717;30;88413;-61
2022/04/09 05:20:16;;;;;;;8.55;4.82;;;6.10;99.90;5.90;97164.00;;;;4630496;30;87101;-60
2022/04/09 05:22:46;;;;;;;8.27;5.97;;;6.00;99.90;5.90;97163.00;;;;4632314;30;87202;-57
2022/04/09 05:25:19;;;;;;;7.43;6.28;;;6.00;99.90;5.90;97178.00;;;;4632790;30;87410;-58
2022/04/09 05:27:50;;;;;;;6.82;5.75;;;6.00;99.90;5.90;97187.00;;;;4632195;30;87122;-59
2022/04/09 05:30:25;;;;;;;7.28;6.13;;;6.00;99.90;5.90;97188.00;;;;4631839;30;87586;-58
2022/04/09 05:32:53;;;;;;;8.00;5.75;;;6.00;99.90;5.90;97186.00;;;;4631448;30;89066;-61
2022/04/09 05:35:19;;;;;;;8.25;5.88;;;6.00;99.90;5.90;97185.00;;;;4633682;30;88785;-60
2022/04/09 05:37:51;;;;;;;9.67;6.47;;;6.00;99.90;5.90;97192.00;;;;4632255;30;87440;-59
2022/04/09 05:40:22;;;;;;;7.38;6.05;;;6.00;99.90;5.90;97193.00;;;;4632111;30;87043;-59
2022/04/09 05:42:50;;;;;;;8.18;6.32;;;5.90;99.90;6.00;97206.00;;;;4631988;30;87185;-58
2022/04/09 05:45:17;;;;;;;7.13;5.95;;;6.10;99.90;6.00;97219.00;;;;4624188;30;87058;-59
2022/04/09 05:47:46;;;;;;;8.18;6.45;;;6.10;99.90;6.10;97225.00;;;;4632266;30;87799;-60
2022/04/09 05:50:17;;;;;;;7.85;5.80;;;6.20;99.90;6.10;97228.00;;;;4632831;30;86673;-59
2022/04/09 05:52:44;;;;;;;7.40;5.68;;;6.20;99.90;6.20;97237.00;;;;4632001;30;87160;-57
2022/04/09 05:55:12;;;;;;;8.18;5.75;;;6.20;99.90;6.10;97241.00;;;;4631842;30;87769;-59
2022/04/09 05:57:40;;;;;;;8.27;5.40;;;6.20;99.90;6.10;97241.00;;;;4630795;30;88378;-58
2022/04/09 06:00:10;;;;;;;10.13;6.25;;;6.20;99.90;6.10;97260.00;;;;4617740;30;87617;-58
2022/04/09 06:02:47;;;;;;;6.13;5.43;;;6.20;99.90;6.10;97263.00;;;;4631608;30;87320;-59
2022/04/09 06:05:26;;;;;;;7.22;5.57;;;6.20;99.90;6.10;97276.00;;;;4631424;30;87885;-60
2022/04/09 06:07:55;;;;;;;8.52;6.03;;;6.10;99.90;6.00;97281.00;;;;4631329;30;87726;-59
2022/04/09 06:10:21;;;;;;;8.35;6.22;;;6.10;99.90;6.00;97290.00;;;;4631707;30;87007;-59
2022/04/09 06:12:48;;;;;;;8.75;6.03;;;6.10;99.90;6.10;97298.00;;;;4648922;30;86913;-59
2022/04/09 06:15:22;;;;;;;7.35;6.00;;;6.20;99.90;6.10;97291.00;;;;4631214;30;86500;-59
2022/04/09 06:17:51;;;;;;;8.32;6.00;;;6.20;99.90;6.10;97297.00;;;;4631045;30;87585;-58
2022/04/09 06:20:17;;;;;;;8.07;5.97;;;6.20;99.90;6.20;97301.00;;;;4631939;30;87600;-58
2022/04/09 06:22:45;;;;;;;5.97;5.15;;;6.20;99.90;6.20;97301.00;;;;4619596;30;88127;-58
2022/04/09 06:25:13;;;;;;;9.73;6.65;;;6.20;99.90;6.10;97296.00;;;;4632364;30;87695;-58
2022/04/09 06:27:41;;;;;;;6.25;5.38;;;6.10;99.90;6.20;97301.00;;;;4631142;30;87326;-57
2022/04/09 06:30:10;;;;;;;7.25;5.80;;;6.20;99.90;6.20;97303.00;;;;4631563;30;87226;-59
2022/04/09 06:32:38;;;;;;;8.27;6.22;;;6.30;99.90;6.30;97295.00;;;;4632103;30;87828;-59
2022/04/09 06:35:07;;;;;;;6.75;5.47;;;6.30;99.90;6.30;97305.00;;;;4631681;30;88731;-59
2022/04/09 06:37:38;;;;;;;7.82;5.90;;;6.30;99.90;6.30;97306.00;;;;4631277;30;87191;-59
2022/04/09 06:40:09;;;;;;;7.13;5.10;;;6.40;99.90;6.40;97314.00;;;;4618038;30;86452;-60
2022/04/09 06:42:37;;;;;;;10.65;6.28;;;6.50;99.90;6.40;97313.00;;;;4645784;30;86997;-58
2022/04/09 06:45:24;;;;;;;6.80;5.57;;;6.50;99.90;6.50;97311.00;;;;4621774;30;87967;-59
2022/04/09 06:48:09;;;;;;;9.00;5.82;;;6.50;99.90;6.50;97314.00;;;;4631344;30;87928;-59
2022/04/09 06:50:44;;;;;;;8.10;5.30;;;6.60;99.90;6.50;97328.00;;;;4631367;30;87412;-61
2022/04/09 06:53:10;;;;;;;7.57;5.40;;;6.60;99.90;6.50;97344.00;;;;4631597;30;87073;-60
2022/04/09 06:55:36;;;;;;;7.90;5.60;;;6.50;99.90;6.50;97342.00;;;;4630543;30;87701;-60
2022/04/09 06:58:03;;;;;;;11.75;6.00;;;6.50;99.90;6.40;97353.00;;;;4630429;30;88202;-59
2022/04/09 07:00:34;;;;;;;7.53;5.95;;;6.50;99.90;6.40;97357.00;;;;4631121;30;87103;-60
2022/04/09 07:03:01;;;;;;;9.57;5.97;;;6.50;99.90;6.30;97360.00;;;;4630147;30;87331;-59
2022/04/09 07:05:27;;;;;;;8.27;5.40;;;6.40;99.90;6.30;97354.00;;;;4631568;30;86320;-60
2022/04/09 07:07:54;;;;;;;10.27;6.05;;;6.40;99.90;6.30;97361.00;;;;4630566;30;87035;-61
2022/04/09 07:10:20;;;;;;;9.75;6.75;;;6.40;99.90;6.30;97360.00;;;;4632209;30;87027;-58
2022/04/09 07:12:47;;;;;;;7.57;6.43;;;6.30;99.90;6.20;97360.00;;;;4633581;30;88145;-60
2022/04/09 07:15:14;;;;;;;8.05;7.13;;;6.30;99.90;6.20;97373.00;;;;4631087;30;87756;-57
2022/04/09 07:17:43;;;;;;;9.50;5.97;;;6.30;99.90;6.20;97370.00;;;;4630630;30;89054;-59
2022/04/09 07:20:11;;;;;;;9.32;6.47;;;6.30;99.90;6.20;97376.00;;;;4631886;30;87130;-59
2022/04/09 07:22:38;;;;;;;8.82;6.40;;;6.30;99.90;6.30;97387.00;;;;4630298;30;87615;-59
2022/04/09 07:25:06;;;;;;;7.88;5.90;;;6.30;99.90;6.40;97396.00;;;;4632037;30;87559;-61
2022/04/09 07:27:44;;;;;;;8.60;5.90;;;6.40;99.90;6.40;97403.00;;;;4630626;30;88488;-58
2022/04/09 07:30:19;;;;;;;8.90;6.65;;;6.50;99.90;6.50;97402.00;;;;4631973;30;86409;-59
2022/04/09 07:32:47;;;;;;;7.53;6.15;;;6.50;99.90;6.50;97418.00;;;;4631634;30;87574;-60
2022/04/09 07:35:14;;;;;;;7.70;5.53;;;6.60;99.90;6.50;97418.00;;;;4634821;30;88872;-59
2022/04/09 07:37:45;;;;;;;8.85;5.82;;;6.60;99.90;6.70;97431.00;;;;4634014;30;88686;-59
2022/04/09 07:40:15;;;;;;;7.77;6.10;;;6.70;99.90;6.70;97434.00;;;;4634663;30;87280;-59
2022/04/09 07:42:44;;;;;;;9.50;5.93;;;6.70;99.90;6.70;97439.00;;;;4634047;30;87109;-58
2022/04/09 07:45:12;;;;;;;10.38;6.82;;;6.70;99.90;6.70;97442.00;;;;4634467;30;87734;-60
2022/04/09 07:47:39;;;;;;;9.32;6.20;;;6.80;99.90;6.80;97458.00;;;;4634705;30;87591;-59
2022/04/09 07:50:10;;;;;;;7.47;6.40;;;6.80;99.90;6.80;97458.00;;;;4634527;30;87126;-57
2022/04/09 07:52:44;;;;;;;9.80;6.22;;;6.80;99.90;6.80;97452.00;;;;4633731;30;87073;-59
2022/04/09 07:55:15;;;;;;;9.60;6.30;;;6.90;99.90;6.80;97456.00;;;;4634573;30;87887;-60
2022/04/09 07:57:42;;;;;;;10.37;6.63;;;6.80;99.90;6.90;97462.00;;;;4633591;30;87116;-61
2022/04/09 08:00:09;;;;;;;11.98;6.80;;;6.80;99.90;6.90;97459.00;;;;4634519;30;87057;-59
2022/04/09 08:02:39;;;;;;;7.90;6.50;;;6.90;99.90;6.80;97460.00;;;;4633241;30;88005;-59
2022/04/09 08:05:06;;;;;;;8.00;6.57;;;6.80;99.90;6.80;97466.00;;;;4633584;30;88561;-61
2022/04/09 08:07:32;;;;;;;13.25;6.72;;;6.80;99.90;6.70;97464.00;;;;4633987;30;87400;-62
2022/04/09 08:09:59;;;;;;;8.50;6.40;;;6.70;99.90;6.80;97470.00;;;;4633891;30;87524;-59
2022/04/09 08:12:25;;;;;;;8.65;6.65;;;6.80;99.90;6.70;97465.00;;;;4634076;30;87169;-56
2022/04/09 08:14:52;;;;;;;11.85;7.25;;;6.80;99.90;6.70;97468.00;;;;4631553;30;90245;-57
2022/04/09 08:17:20;;;;;;;11.93;7.68;;;6.80;99.90;6.70;97468.00;;;;4633058;30;87441;-56
2022/04/09 08:19:48;;;;;;;9.88;7.22;;;6.70;99.90;6.70;97483.00;;;;4633598;30;86980;-57
2022/04/09 08:22:16;;;;;;;11.48;7.43;;;6.70;99.90;6.70;97487.00;;;;4631863;30;87219;-55
2022/04/09 08:24:43;;;;;;;13.88;7.32;;;6.80;99.90;6.70;97497.00;;;;4635144;30;88783;-55
2022/04/09 08:27:09;;;;;;;9.52;6.57;;;6.80;99.90;6.70;97498.00;;;;4632266;30;87977;-57
2022/04/09 08:29:36;;;;;;;8.63;7.22;;;6.70;99.90;6.60;97492.00;;;;4633307;30;87070;-57
2022/04/09 08:32:04;;;;;;;10.82;6.85;;;6.60;99.90;6.60;97493.00;;;;4632586;30;87231;-58
2022/04/09 08:34:37;;;;;;;8.57;6.57;;;6.60;99.90;6.60;97487.00;;;;4633171;30;87748;-53
2022/04/09 08:37:06;;;;;;;10.55;7.43;;;6.70;99.90;6.60;97501.00;;;;4633316;30;87127;-54
2022/04/09 08:39:34;;;;;;;9.43;6.68;;;6.70;99.90;6.70;97493.00;;;;4633092;30;86980;-53
2022/04/09 08:42:03;;;;;;;13.43;7.75;;;6.70;99.90;6.70;97485.00;;;;4633460;30;87114;-54
2022/04/09 08:44:33;;;;;;;11.98;7.57;;;6.70;99.90;6.70;97495.00;;;;4632911;30;87904;-54
2022/04/09 08:47:00;;;;;;;8.07;6.82;;;6.80;99.90;6.80;97491.00;;;;4632672;30;87961;-56
2022/04/09 08:49:29;;;;;;;10.07;6.53;;;6.80;99.90;6.80;97496.00;;;;4632757;30;87067;-57
2022/04/09 08:51:55;;;;;;;8.90;6.53;;;6.80;99.90;6.80;97503.00;;;;4647029;30;88076;-55
2022/04/09 08:54:22;;;;;;;12.40;7.03;;;6.90;99.90;7.00;97509.00;;;;4633245;30;88717;-53
2022/04/09 08:56:50;;;;;;;9.40;6.53;;;7.10;99.90;7.40;97497.00;;;;4632092;30;87393;-58
2022/04/09 08:59:17;;;;;;;7.00;5.65;;;7.40;99.90;7.70;97498.00;;;;4632888;30;88041;-57
2022/04/09 09:01:43;;;;;;;6.85;4.97;;;7.70;99.90;8.10;97495.00;;;;4632133;30;87661;-56
2022/04/09 09:04:10;;;;;;;6.95;5.15;;;8.00;99.90;8.30;97501.00;;;;4632498;30;87776;-57
2022/04/09 09:06:40;;;;;;;10.32;5.47;;;8.20;99.90;8.40;97502.00;;;;4632914;30;87132;-59
2022/04/09 09:09:09;;;;;;;8.45;5.03;;;8.20;99.90;8.50;97498.00;;;;4632573;30;86323;-54
2022/04/09 09:11:50;;;;;;;8.82;5.30;;;8.40;99.90;8.80;97501.00;;;;4636424;30;87001;-56
2022/04/09 09:14:32;;;;;;;8.95;5.30;;;8.60;99.90;9.20;97505.00;;;;4616402;30;87108;-54
2022/04/09 09:16:59;;;;;;;;;;;9.00;99.90;9.20;97505.00;;;;4632574;30;88299;-58
2022/04/09 09:19:50;;;;;;;7.90;4.90;;;9.00;99.90;9.30;97514.00;;;;4633061;30;87615;-56
2022/04/09 09:22:18;;;;;;;7.07;4.87;;;9.00;99.90;9.30;97504.00;;;;4632540;30;87076;-55
2022/04/09 09:25:05;;;;;;;8.30;4.75;;;9.00;99.90;9.30;97513.00;;;;4632727;30;87694;-57
2022/04/09 09:27:31;;;;;;;8.05;5.00;;;9.00;99.90;9.60;97523.00;;;;4631405;30;90346;-57
2022/04/09 09:29:58;;;;;;;8.70;5.13;;;9.30;99.90;9.90;97527.00;;;;4631932;30;87451;-53
2022/04/09 09:32:26;;;;;;;6.10;4.80;;;9.70;99.90;10.10;97519.00;;;;4632587;30;87217;-58
2022/04/09 09:34:59;;;;;;;7.35;4.32;;;9.90;99.90;10.00;97505.00;;;;4631491;30;87113;-56
2022/04/09 09:37:29;;;;;;;5.60;4.15;;;9.80;99.90;10.20;97513.00;;;;4630825;30;87785;-59
2022/04/09 09:39:56;;;;;;;6.10;4.35;;;10.00;99.90;10.20;97501.00;;;;4632404;30;87161;-54
2022/04/09 09:42:27;;;;;;;5.88;3.92;;;10.00;99.90;10.00;97498.00;;;;4632463;30;88101;-57
2022/04/09 09:44:54;;;;;;;5.90;4.32;;;9.80;99.90;10.00;97497.00;;;;4632364;30;88129;-55
2022/04/09 09:47:20;;;;;;;6.93;3.78;;;9.80;99.90;10.00;97490.00;;;;4633037;30;88536;-58
2022/04/09 09:49:56;;;;;;;8.07;4.35;;;9.80;99.90;10.00;97487.00;;;;4633107;30;87118;-58
2022/04/09 09:52:36;;;;;;;7.70;4.53;;;9.80;99.90;9.90;97487.00;;;;4632547;30;87170;-61
2022/04/09 09:55:13;;;;;;;5.53;3.90;;;9.80;99.90;9.70;97496.00;;;;4631405;30;88748;-59
2022/04/09 09:57:39;;;;;;;6.13;4.57;;;9.50;99.90;9.70;97497.00;;;;4632047;30;87390;-60
2022/04/09 10:00:14;;;;;;;7.22;3.75;;;9.50;99.90;9.70;97492.00;;;;4632915;30;87395;-60
2022/04/09 10:02:44;;;;;;;7.38;4.20;;;9.50;99.90;9.60;97495.00;;;;4631125;30;87138;-60
2022/04/09 10:05:10;;;;;;;8.13;4.43;;;9.40;99.90;9.70;97503.00;;;;4629663;30;87737;-61
2022/04/09 10:07:39;;;;;;;6.72;4.32;;;9.50;99.90;9.70;97515.00;;;;4630708;30;88829;-59
2022/04/09 10:10:07;;;;;;;7.07;4.05;;;9.50;99.90;9.90;97514.00;;;;4632986;30;87068;-59
2022/04/09 10:12:41;;;;;;;7.68;3.45;;;9.70;99.90;9.90;97515.00;;;;4632086;30;87062;-61
2022/04/09 10:15:09;;;;;;;5.45;3.67;;;9.70;99.90;9.80;97514.00;;;;4631653;30;87657;-63
2022/04/09 10:17:38;;;;;;;5.55;3.35;;;9.70;99.90;9.90;97500.00;;;;4602839;30;89768;-64
2022/04/09 10:20:06;;;;;;;5.88;3.60;;;9.80;99.90;10.10;97515.00;;;;4645752;30;87053;-63
2022/04/09 10:22:47;;;;;;;7.10;3.88;;;9.90;99.90;10.20;97518.00;;;;4621719;30;87645;-68
2022/04/09 10:25:27;;;;;;;6.15;3.47;;;10.10;99.90;10.30;97509.00;;;;4631763;30;87518;-59
2022/04/09 10:28:08;;;;;;;6.72;3.15;;;10.20;99.90;10.30;97502.00;;;;4617889;30;87707;-61
2022/04/09 10:30:40;;;;;;;7.88;3.60;;;10.10;99.90;10.30;97499.00;;;;4645352;30;87147;-58
2022/04/09 10:33:28;;;;;;;5.65;3.38;;;10.20;99.90;10.10;97495.00;;;;4630257;30;88050;-62
2022/04/09 10:36:01;;;;;;;8.02;3.58;;;9.90;99.90;9.70;97499.00;;;;4631343;30;89061;-63
2022/04/09 10:38:28;;;;;;;8.25;3.50;;;9.60;99.90;9.50;97490.00;;;;4602814;30;90703;-55
2022/04/09 10:40:57;;;;;;;8.35;3.70;;;9.40;99.90;9.40;97498.00;;;;4616342;30;87032;-57
2022/04/09 10:43:27;;;;;;;7.90;3.30;;;9.40;99.90;9.50;97496.00;;;;4631595;30;87292;-55
2022/04/09 10:46:02;;;;;;;5.25;3.45;;;9.50;99.90;9.60;97495.00;;;;4632116;30;87527;-62
2022/04/09 10:48:47;;;;;;;5.45;3.38;;;9.60;99.90;9.60;97501.00;;;;4632112;30;87355;-59
2022/04/09 10:51:15;;;;;;;9.63;3.45;;;9.60;99.90;9.70;97510.00;;;;4632122;30;86720;-60
2022/04/09 10:53:50;;;;;;;7.50;3.30;;;9.60;99.90;9.60;97505.00;;;;4632943;30;86966;-60
2022/04/09 10:56:26;;;;;;;4.82;3.35;;;9.50;99.90;9.50;97517.00;;;;4631384;30;87578;-56
2022/04/09 10:59:06;;;;;;;6.10;2.72;;;9.50;99.90;9.50;97514.00;;;;4631011;30;89028;-55
2022/04/09 11:01:47;;;;;;;7.13;3.35;;;9.40;99.90;9.30;97512.00;;;;4631646;30;87599;-58
2022/04/09 11:07:12;;;;;;;6.28;4.00;;;9.20;99.90;9.30;97512.00;;;;4630470;30;88127;-50
2022/04/09 11:09:50;;;;;;;5.38;3.60;;;9.30;99.90;9.30;97517.00;;;;4633426;30;90129;-54
2022/04/09 11:12:24;;;;;;;5.72;3.72;;;9.30;99.90;9.30;97509.00;;;;4631619;30;87067;-55
2022/04/09 11:14:58;;;;;;;5.82;3.80;;;9.30;99.90;9.40;97520.00;;;;4634195;30;87113;-54
2022/04/09 11:17:35;;;;;;;6.43;3.53;;;9.40;99.90;9.60;97515.00;;;;4631578;30;87649;-58
2022/04/09 11:20:07;;;;;;;5.47;3.85;;;9.50;99.90;9.70;97513.00;;;;4633801;30;87725;-58